Accueil
METAR-TAF:

METAR-TAF

Aéroports :

Kayseri, Turquie

latitude: 38-47N, longitude: 035-29E, altitude: 1053 m

Observation

Le bulletin a été fait il y a 39 minutes, à 22:20 UTC
Vent calme
Température 12°C
Humidité 76%
Pression 1016 hPa
Visibilité 10 km ou plus
pas de nuages en-dessous de 1500 mètres et pas de cumulonimbus.

METAR: LTAU 252220Z 00000KT CAVOK 12/08 Q1016 NOSIG RMK RWY07 00000KT

Heure: 01:59 (22:59 UTC)

Prévision

Le bulletin a été fait il y a 6 heures et 19 minutes, à 16:40 UTC
Prévision valable du 25 à 18 UTC au 26 à 18 UTC
Vent 2 kt de direction variable
Visibilité 10 km ou plus
pas de nuages en-dessous de 1500 mètres et pas de cumulonimbus.
Evoluant progressivement
du 26 à 05 UTC au 26 à 08 UTC
Nuages épars à une hauteur de 4000 ft

TAF: LTAU 251640Z 2518/2618 VRB02KT CAVOK BECMG 2605/2608 SCT040

Observations et prévisions météorologiques de plus de 4000 aéroports (messages METAR et TAF).

Les stations disponibles sont représentées par des disques jaunes et rouges sur la carte.

Passer la souris dessus pour voir le nom de la station.

Cliquer dessus pour voir les observations et prévisions météorologiques.

Pour changer de carte: cliquez sur les boutons verts avec une croix noire pour zoomer, sur le bouton vert avec un tiret pour effectuer un zoom arrière, ou sur les flèches vertes pour les cartes adjacentes.


METAR-TAF: